Weather observations for the past three days for
Mason City Municipal Airport
| Date | Time (cdt) | Wind (mph) | Vis. (mi.) | Weather | Sky Cond. | Temperature (ºF) | Relative Humidity | Wind Chill (°F) | Heat Index (°F) | Pressure | Precipitation (in) | ||||||
|---|---|---|---|---|---|---|---|---|---|---|---|---|---|---|---|---|---|
| Air | Dwpt | 6 hour | altimeter (in) | sea level (mb) | 1 hr | 3 hr | 6 hr | ||||||||||
| Max. | Min. | ||||||||||||||||
| 10 | 07:53 | W 8 | 10.00 | Fair | CLR | 48 | 27 | 44% | 45 | 30.11 | 1019.4 | ||||||
| 10 | 06:53 | W 9 | 10.00 | Fair | CLR | 39 | 26.1 | 41 | 32 | 60% | 33 | 30.09 | 1019.0 | ||||
| 10 | 05:53 | W 6 | 10.00 | Fair | CLR | 33.1 | 25 | 72% | 28 | 30.08 | 1018.6 | ||||||
| 10 | 04:53 | W 6 | 10.00 | Fair | CLR | 35.1 | 25 | 67% | 31 | 30.07 | 1018.0 | ||||||
| 10 | 03:53 | W 6 | 10.00 | Fair | CLR | 37 | 23 | 57% | 33 | 30.05 | 1017.4 | ||||||
| 10 | 02:53 | W 6 | 10.00 | Fair | CLR | 39 | 21.9 | 50% | 35 | 30.03 | 1016.8 | ||||||
| 10 | 01:53 | NW 7 | 10.00 | Fair | CLR | 39.9 | 21.9 | 49% | 36 | 30.02 | 1016.5 | ||||||
| 10 | 00:53 | W 7 | 10.00 | Fair | CLR | 42.1 | 21.9 | 60.1 | 41 | 45% | 38 | 30.02 | 1016.1 | ||||
| 09 | 23:53 | NW 9 | 10.00 | Fair | CLR | 43 | 21.9 | 43% | 38 | 29.99 | 1015.3 | ||||||
| 09 | 22:53 | NW 10 | 10.00 | Fair | CLR | 46.9 | 21.9 | 37% | 43 | 29.97 | 1014.6 | ||||||
| 09 | 21:53 | NW 9 | 10.00 | Fair | CLR | 45 | 21.9 | 40% | 41 | 29.95 | 1014.2 | ||||||
| 09 | 20:53 | NW 9 | 10.00 | Fair | CLR | 51.1 | 21 | 31% | 29.92 | 1012.8 | |||||||
| 09 | 19:53 | NW 17 | 10.00 | Fair | CLR | 57 | 19.9 | 24% | 29.88 | 1011.5 | |||||||
| 09 | 18:53 | N 21 G 30 | 10.00 | Fair and Breezy | CLR | 60.1 | 21.9 | 64.9 | 60.1 | 23% | 29.85 | 1010.5 | |||||
| 09 | 17:53 | N 17 G 25 | 10.00 | Fair | CLR | 62.1 | 24.1 | 23% | 29.84 | 1010.1 | |||||||
| 09 | 16:53 | N 29 G 38 | 10.00 | Fair and Windy | CLR | 63 | 24.1 | 23% | 29.82 | 1009.4 | |||||||
| 09 | 15:53 | NW 20 G 33 | 10.00 | Fair | CLR | 64.9 | 26.1 | 23% | 29.81 | 1009.1 | |||||||
| 09 | 14:53 | N 18 G 38 | 10.00 | Fair | CLR | 64 | 28.9 | 27% | 29.8 | 1008.5 | |||||||
| 09 | 13:53 | NW 20 G 40 | 10.00 | Fair | CLR | 64 | 32 | 30% | 29.78 | 1008.1 | |||||||
| 09 | 12:53 | NW 22 G 30 | 10.00 | Fair and Breezy | CLR | 63 | 35.1 | 64 | 48.9 | 35% | 29.78 | 1007.8 | |||||
| 09 | 11:53 | N 18 G 33 | 10.00 | A Few Clouds | FEW047 | 62.1 | 39 | 43% | 29.76 | 1007.3 | |||||||
| 09 | 10:53 | NW 22 G 31 | 10.00 | Mostly Cloudy and Breezy | SCT042 BKN100 | 62.1 | 42.1 | 48% | 29.74 | 1006.6 | |||||||
| 09 | 09:53 | NW 22 G 29 | 10.00 | Mostly Cloudy and Breezy | BKN070 BKN090 | 59 | 41 | 51% | 29.74 | 1006.4 | |||||||
| 09 | 08:53 | NW 14 G 23 | 10.00 | Overcast | BKN100 OVC110 | 55.9 | 37.9 | 51% | 29.72 | 1005.6 | |||||||
| 09 | 07:53 | NW 13 | 10.00 | Overcast | OVC095 | 52 | 32 | 47% | 29.71 | 1005.3 | |||||||
| 09 | 06:53 | W 12 | 10.00 | Fair | CLR | 48.9 | 30.9 | 52 | 41 | 50% | 45 | 29.68 | 1004.5 | ||||
| 09 | 05:53 | SW 9 | 10.00 | Fair | CLR | 50 | 30 | 46% | 47 | 29.62 | 1002.1 | ||||||
| 09 | 04:53 | W 9 | 10.00 | Fair | CLR | 48.9 | 34 | 56% | 45 | 29.63 | 1002.7 | ||||||
| 09 | 03:53 | W 7 | 10.00 | Fair | CLR | 44.1 | 34 | 68% | 41 | 29.63 | 1002.9 | ||||||
| 09 | 02:53 | W 6 | 10.00 | Fair | CLR | 45 | 30 | 56% | 42 | 29.64 | 1002.9 | ||||||
| 09 | 01:53 | W 7 | 10.00 | Fair | CLR | 48 | 28.9 | 48% | 45 | 29.66 | 1003.6 | ||||||
| 09 | 00:53 | W 7 | 10.00 | Partly Cloudy | SCT100 | 50 | 30 | 71.1 | 50 | 46% | 48 | 29.66 | 1003.7 | ||||
| 08 | 23:53 | NW 9 | 10.00 | Fair | CLR | 52 | 30.9 | 45% | 29.67 | 1003.9 | |||||||
| 08 | 22:53 | NW 10 | 10.00 | Fair | CLR | 57.9 | 30 | 35% | 29.66 | 1003.5 | |||||||
| 08 | 21:53 | NW 10 | 10.00 | A Few Clouds | FEW120 | 57.9 | 32 | 38% | 29.64 | 1003.0 | |||||||
| 08 | 20:53 | NW 9 | 10.00 | Fair | CLR | 62.1 | 30 | 30% | 29.61 | 1002.1 | |||||||
| 08 | 19:53 | W 10 | 10.00 | Partly Cloudy | SCT110 | 66.9 | 32 | 27% | 29.6 | 1001.7 | |||||||
| 08 | 18:53 | W 17 G 28 | 10.00 | Overcast | OVC110 | 71.1 | 30 | 73.9 | 69.1 | 22% | 29.6 | 1001.9 | |||||
| 08 | 17:53 | W 20 G 25 | 10.00 | Partly Cloudy | SCT110 | 73 | 28.9 | 19% | 29.61 | 1002.2 | |||||||
| 08 | 16:53 | W 16 G 29 | 10.00 | Fair | CLR | 73.9 | 28 | 18% | 29.62 | 1002.7 | |||||||
| 08 | 15:53 | W 12 G 26 | 10.00 | Fair | CLR | 71.1 | 26.1 | 19% | 29.64 | 1003.3 | |||||||
| 08 | 14:53 | W 9 | 10.00 | Fair | CLR | 72 | 26.1 | 18% | 29.67 | 1004.4 | |||||||
| 08 | 13:53 | W 10 G 28 | 10.00 | Fair | CLR | 72 | 27 | 19% | 29.7 | 1005.1 | |||||||
| 08 | 12:53 | NW 8 G 18 | 10.00 | A Few Clouds | FEW095 | 69.1 | 27 | 70 | 39 | 21% | 29.72 | 1006.1 | |||||
| 08 | 11:53 | SW 10 G 17 | 10.00 | Fair | CLR | 68 | 26.1 | 21% | 29.75 | 1007.0 | |||||||
| 08 | 10:53 | W 15 G 20 | 10.00 | Fair | CLR | 64.9 | 28 | 25% | 29.78 | 1008.0 | |||||||
| 08 | 09:53 | SW 12 | 10.00 | Fair | CLR | 61 | 28 | 29% | 29.79 | 1008.3 | |||||||
| 08 | 08:53 | S 13 | 10.00 | Fair | CLR | 55 | 26.1 | 33% | 29.81 | 1009.0 | |||||||
| 08 | 07:53 | S 6 | 10.00 | Fair | CLR | 48 | 28 | 46% | 46 | 29.81 | 1009.2 | ||||||
| 08 | 06:53 | Calm | 10.00 | Fair | CLR | 37.9 | 23 | 43 | 33.1 | 55% | 29.8 | 1009.1 | |||||
| 08 | 05:53 | S 6 | 10.00 | Fair | CLR | 37.9 | 21.9 | 52% | 34 | 29.8 | 1008.9 | ||||||
| 08 | 04:53 | S 3 | 10.00 | Fair | CLR | 35.1 | 23 | 61% | 29.81 | 1009.2 | |||||||
| 08 | 03:53 | SE 5 | 10.00 | Fair | CLR | 35.1 | 23 | 61% | 32 | 29.81 | 1009.2 | ||||||
| 08 | 02:53 | Calm | 10.00 | Fair | CLR | 37.9 | 21 | 51% | 29.82 | 1009.7 | |||||||
| 08 | 01:53 | S 6 | 10.00 | Fair | CLR | 42.1 | 21 | 43% | 39 | 29.83 | 1009.8 | ||||||
| 08 | 00:53 | S 6 | 10.00 | Fair | CLR | 39 | 25 | 60.1 | 36 | 57% | 35 | 29.83 | 1010.1 | ||||
| 07 | 23:53 | Calm | 10.00 | Fair | CLR | 43 | 25 | 49% | 29.83 | 1009.9 | |||||||
| 07 | 22:53 | Calm | 10.00 | Fair | CLR | 43 | 27 | 53% | 29.83 | 1010.1 | |||||||
| 07 | 21:53 | Calm | 10.00 | Fair | CLR | 48 | 23 | 37% | 29.83 | 1010.1 | |||||||
| 07 | 20:53 | N 5 | 10.00 | Fair | CLR | 52 | 21 | 30% | 29.82 | 1009.6 | |||||||
| 07 | 19:53 | N 10 | 10.00 | Fair | CLR | 57 | 21.9 | 26% | 29.8 | 1009.1 | |||||||
| 07 | 18:53 | NW 14 G 20 | 10.00 | Fair | CLR | 60.1 | 21.9 | 62.1 | 57 | 23% | 29.8 | 1009.1 | |||||
| 07 | 17:53 | NW 17 G 24 | 10.00 | Fair | CLR | 61 | 21.9 | 22% | 29.81 | 1009.2 | |||||||
| 07 | 16:53 | W 8 G 21 | 10.00 | Fair | CLR | 62.1 | 23 | 22% | 29.81 | 1009.3 | |||||||
| 07 | 15:53 | NW 13 G 22 | 10.00 | Fair | CLR | 62.1 | 25 | 24% | 29.82 | 1009.6 | |||||||
| 07 | 14:53 | W 16 G 30 | 10.00 | A Few Clouds | FEW080 | 61 | 25 | 25% | 29.83 | 1010.1 | |||||||
| 07 | 13:53 | NW 14 G 21 | 10.00 | A Few Clouds | FEW075 | 59 | 25 | 27% | 29.85 | 1010.6 | |||||||
| 07 | 12:53 | W 10 G 20 | 10.00 | Fair | CLR | 57.9 | 27 | 57.9 | 37 | 31% | 29.85 | 1010.9 | |||||
| 07 | 11:53 | NW 8 G 17 | 10.00 | Fair | CLR | 55.9 | 27 | 33% | 29.87 | 1011.5 | |||||||
| 07 | 10:53 | N 8 | 10.00 | Fair | CLR | 54 | 27 | 35% | 29.87 | 1011.6 | |||||||
| 07 | 09:53 | NE 13 | 10.00 | Fair | CLR | 50 | 27 | 41% | 46 | 29.87 | 1011.7 | ||||||
| 07 | 08:53 | NE 5 | 10.00 | Mostly Cloudy | BKN100 | 45 | 26.1 | 48% | 43 | 29.88 | 1012.0 | ||||||
| Date | Time (cdt) | Wind (mph) | Vis. (mi.) | Weather | Sky Cond. | Air | Dwpt | Max. | Min. | Relative Humidity | Wind Chill (°F) | Heat Index (°F) | altimeter (in) | sea level (mb) | 1 hr | 3 hr | 6 hr |
| 6 hour | |||||||||||||||||
| Temperature (ºF) | Pressure | Precipitation (in) | |||||||||||||||